TLPC/SLU METAR and TAF weather

Enter ICAO airport designator
Station Type Date Time Source
TLPC METAR 2018/12/12 00:00 UTC NOAA

TLPC 120000Z 10007KT 9999 SCT024 27/22 Q1017 NOSIG


Station Type Date Time Source
TLPC Decoded METAR 2018/12/12 00:00 UTC NOAA

Vigie, Saint Lucia (TLPC) 14-01N 061-00W 2M
Dec 11, 2018 - 07:00 PM EST / 2018.12.12 0000 UTC
Wind: from the E (100 degrees) at 8 MPH (7 KT):0
Visibility: greater than 7 mile(s):0
Sky conditions: partly cloudy
Temperature: 80 F (27 C)
Dew Point: 71 F (22 C)
Relative Humidity: 74%
Pressure (altimeter): 30.03 in. Hg (1017 hPa)
ob: TLPC 120000Z 10007KT 9999 SCT024 27/22 Q1017 NOSIG
cycle: 0

Station Type Date Time Source
TLPC TAF 2018/12/12 06:06 UTC NOAA

TAF TAF TLPC 120502Z 1206/1306 09017KT 9999 SCT023
TEMPO 1206/1218 SHRA


Example: see airport list